Time;durP1;ratioP1;P1;durP2;ratioP2;P2;SDS_P1;SDS_P2;PMS_P1;PMS_P2;Temp;Humidity;BMP_temperature;BMP_pressure;BME280_temperature;BME280_humidity;BME280_pressure;Samples;Min_cycle;Max_cycle;Signal;HPM_P1;HPM_P2
2023/07/31 00:01:22;;;;;;;11.02;10.52;;;;;;;;;;5091004;28;20513;-60
2023/07/31 00:03:47;;;;;;;11.35;10.85;;;;;;;;;;5090484;28;20016;-60
2023/07/31 00:06:12;;;;;;;11.30;10.80;;;;;;;;;;5102325;28;20019;-60
2023/07/31 00:08:38;;;;;;;11.05;10.55;;;;;;;;;;5099249;28;20478;-60
2023/07/31 00:11:03;;;;;;;11.07;10.57;;;;;;;;;;5086533;28;20654;-61
2023/07/31 00:13:28;;;;;;;11.38;10.88;;;;;;;;;;5084592;28;21459;-61
2023/07/31 00:15:54;;;;;;;10.68;10.18;;;;;;;;;;5094279;28;20028;-61
2023/07/31 00:18:19;;;;;;;10.85;10.35;;;;;;;;;;5097945;28;20041;-61
2023/07/31 00:20:44;;;;;;;11.30;10.80;;;;;;;;;;5095564;28;20386;-60
2023/07/31 00:23:10;;;;;;;11.38;10.88;;;;;;;;;;5095566;28;20024;-61
2023/07/31 00:25:35;;;;;;;11.07;10.57;;;;;;;;;;5089974;28;20023;-61
2023/07/31 00:28:00;;;;;;;11.88;11.27;;;;;;;;;;5092181;28;20364;-60
2023/07/31 00:30:26;;;;;;;11.00;10.50;;;;;;;;;;5092560;28;20914;-60
2023/07/31 00:32:52;;;;;;;11.25;10.75;;;;;;;;;;5096069;28;20038;-60
2023/07/31 00:35:17;;;;;;;11.15;10.65;;;;;;;;;;5099735;28;20052;-60
2023/07/31 00:37:42;;;;;;;11.18;10.68;;;;;;;;;;5099775;28;20363;-60
2023/07/31 00:40:08;;;;;;;11.07;10.57;;;;;;;;;;5090667;28;20082;-61
2023/07/31 00:42:33;;;;;;;11.15;10.65;;;;;;;;;;5090712;28;20403;-61
2023/07/31 00:44:59;;;;;;;11.05;10.55;;;;;;;;;;5096872;28;20515;-61
2023/07/31 00:47:24;;;;;;;10.93;10.43;;;;;;;;;;5094825;28;20028;-60
2023/07/31 00:49:49;;;;;;;11.30;10.80;;;;;;;;;;5101602;28;20020;-60
2023/07/31 00:52:15;;;;;;;11.10;10.60;;;;;;;;;;5074818;28;20036;-61
2023/07/31 00:54:40;;;;;;;11.25;10.75;;;;;;;;;;5071500;28;20023;-61
2023/07/31 00:57:08;;;;;;;11.05;10.55;;;;;;;;;;5096769;28;20439;-60
2023/07/31 00:59:33;;;;;;;11.30;10.80;;;;;;;;;;5089725;28;20040;-60
2023/07/31 01:01:58;;;;;;;11.20;10.70;;;;;;;;;;5099491;28;20024;-61
2023/07/31 01:04:24;;;;;;;11.05;10.55;;;;;;;;;;5088240;28;20553;-61
2023/07/31 01:07:16;;;;;;;11.02;10.52;;;;;;;;;;5093111;28;20085;-60
2023/07/31 01:10:00;;;;;;;11.02;10.52;;;;;;;;;;5068604;28;20029;-62
2023/07/31 01:12:27;;;;;;;11.67;11.17;;;;;;;;;;5078212;28;20491;-60
2023/07/31 01:15:10;;;;;;;11.18;10.68;;;;;;;;;;5096015;28;20253;-61
2023/07/31 01:17:39;;;;;;;11.30;10.80;;;;;;;;;;5100396;28;20065;-61
2023/07/31 01:20:07;;;;;;;11.43;10.93;;;;;;;;;;5098450;28;20024;-61
2023/07/31 01:22:50;;;;;;;11.30;10.80;;;;;;;;;;5095837;28;20024;-61
2023/07/31 01:25:16;;;;;;;10.95;10.45;;;;;;;;;;5102850;28;20443;-63
2023/07/31 01:28:08;;;;;;;11.00;10.50;;;;;;;;;;5101755;28;20060;-60
2023/07/31 01:30:35;;;;;;;11.05;10.55;;;;;;;;;;5094196;28;20067;-62
2023/07/31 01:33:06;;;;;;;11.25;10.75;;;;;;;;;;5094159;28;20070;-60
2023/07/31 01:35:32;;;;;;;11.15;10.65;;;;;;;;;;5098777;28;20070;-61
2023/07/31 01:37:58;;;;;;;11.00;10.50;;;;;;;;;;5105720;28;20015;-61
2023/07/31 01:40:23;;;;;;;11.02;10.52;;;;;;;;;;5107315;28;20382;-61
2023/07/31 01:42:49;;;;;;;11.35;10.85;;;;;;;;;;5105893;28;20047;-61
2023/07/31 01:45:14;;;;;;;11.20;10.70;;;;;;;;;;5093246;28;20016;-59
2023/07/31 01:47:39;;;;;;;11.07;10.57;;;;;;;;;;5099166;28;20032;-60
2023/07/31 01:50:05;;;;;;;11.32;10.82;;;;;;;;;;5098030;28;20127;-60
2023/07/31 01:52:30;;;;;;;11.25;10.75;;;;;;;;;;5100225;28;20031;-60
2023/07/31 01:54:58;;;;;;;10.80;10.30;;;;;;;;;;5097543;28;20502;-61
2023/07/31 01:57:24;;;;;;;11.05;10.55;;;;;;;;;;5098707;28;20073;-60
2023/07/31 01:59:49;;;;;;;11.10;10.60;;;;;;;;;;5100566;28;20044;-60
2023/07/31 02:02:15;;;;;;;11.20;10.70;;;;;;;;;;5108133;28;20474;-60
2023/07/31 02:04:41;;;;;;;11.48;10.98;;;;;;;;;;5089774;28;20020;-60
2023/07/31 02:07:06;;;;;;;11.20;10.70;;;;;;;;;;5102679;28;20024;-61
2023/07/31 02:09:31;;;;;;;11.35;10.85;;;;;;;;;;5100909;28;20386;-60
2023/07/31 02:11:57;;;;;;;11.35;10.85;;;;;;;;;;5095779;28;20028;-61
2023/07/31 02:14:22;;;;;;;11.23;10.73;;;;;;;;;;5093936;28;20073;-63
2023/07/31 02:16:47;;;;;;;11.07;10.57;;;;;;;;;;5100134;28;20019;-61
2023/07/31 02:19:13;;;;;;;11.32;10.82;;;;;;;;;;5098636;28;20023;-59
2023/07/31 02:21:38;;;;;;;11.18;10.68;;;;;;;;;;5099424;28;20051;-60
2023/07/31 02:24:03;;;;;;;10.93;10.43;;;;;;;;;;5094159;28;20020;-60
2023/07/31 02:26:29;;;;;;;10.70;10.20;;;;;;;;;;5095002;28;20479;-60
2023/07/31 02:28:54;;;;;;;10.68;10.18;;;;;;;;;;5096320;28;20335;-60
2023/07/31 02:31:19;;;;;;;11.38;10.88;;;;;;;;;;5098596;28;20034;-60
2023/07/31 02:33:45;;;;;;;11.02;10.52;;;;;;;;;;5095020;28;20024;-63
2023/07/31 02:36:10;;;;;;;11.25;10.75;;;;;;;;;;5103693;28;20740;-61
2023/07/31 02:38:35;;;;;;;10.90;10.40;;;;;;;;;;5100224;28;20031;-61
2023/07/31 02:41:00;;;;;;;11.27;10.77;;;;;;;;;;5094579;28;20020;-61
2023/07/31 02:43:26;;;;;;;11.48;10.98;;;;;;;;;;5101840;28;20031;-60
2023/07/31 02:45:52;;;;;;;11.57;11.07;;;;;;;;;;5097358;28;20023;-62
2023/07/31 02:48:17;;;;;;;12.05;11.45;;;;;;;;;;5091855;28;20097;-60
2023/07/31 02:50:43;;;;;;;10.90;10.40;;;;;;;;;;5095159;28;20028;-60
2023/07/31 02:53:08;;;;;;;11.27;10.77;;;;;;;;;;5096341;28;20016;-61
2023/07/31 02:55:33;;;;;;;11.18;10.68;;;;;;;;;;5097234;28;20356;-60
2023/07/31 02:57:58;;;;;;;11.43;10.93;;;;;;;;;;5096105;28;20020;-61
2023/07/31 03:00:24;;;;;;;11.40;10.90;;;;;;;;;;5092895;28;20514;-60
2023/07/31 03:02:49;;;;;;;11.70;11.15;;;;;;;;;;5091793;28;20024;-61
2023/07/31 03:05:15;;;;;;;11.60;11.10;;;;;;;;;;5089068;28;20012;-60
2023/07/31 03:07:40;;;;;;;11.20;10.70;;;;;;;;;;5088421;28;20468;-60
2023/07/31 03:10:06;;;;;;;11.00;10.50;;;;;;;;;;5092438;28;20031;-60
2023/07/31 03:12:31;;;;;;;11.85;11.25;;;;;;;;;;5093677;28;20395;-61
2023/07/31 03:14:56;;;;;;;11.23;10.73;;;;;;;;;;5092094;28;20022;-60
2023/07/31 03:17:22;;;;;;;11.52;11.02;;;;;;;;;;5094187;28;20028;-60
2023/07/31 03:19:47;;;;;;;11.00;10.50;;;;;;;;;;5100902;28;20024;-61
2023/07/31 03:22:12;;;;;;;11.00;10.50;;;;;;;;;;5095293;28;20475;-60
2023/07/31 03:24:40;;;;;;;11.43;10.93;;;;;;;;;;5096913;28;20011;-60
2023/07/31 03:27:05;;;;;;;11.10;10.60;;;;;;;;;;5101044;28;20115;-60
2023/07/31 03:29:31;;;;;;;11.15;10.65;;;;;;;;;;5096933;28;20099;-60
2023/07/31 03:31:56;;;;;;;11.38;10.88;;;;;;;;;;5105527;28;20016;-60
2023/07/31 03:34:21;;;;;;;11.30;10.80;;;;;;;;;;5099002;28;20498;-61
2023/07/31 03:36:46;;;;;;;11.32;10.82;;;;;;;;;;5093409;28;20027;-62
2023/07/31 03:39:12;;;;;;;11.00;10.50;;;;;;;;;;5097484;28;20152;-62
2023/07/31 03:41:37;;;;;;;11.40;10.90;;;;;;;;;;5092395;28;20426;-60
2023/07/31 03:44:02;;;;;;;11.18;10.68;;;;;;;;;;5093171;28;20024;-61
2023/07/31 03:46:28;;;;;;;11.90;11.30;;;;;;;;;;5091414;28;20021;-61
2023/07/31 03:48:53;;;;;;;10.98;10.48;;;;;;;;;;5094446;28;20027;-60
2023/07/31 03:51:18;;;;;;;11.10;10.60;;;;;;;;;;5100919;28;20047;-60
2023/07/31 03:53:44;;;;;;;11.20;10.70;;;;;;;;;;5095625;28;20047;-61
2023/07/31 03:56:09;;;;;;;11.93;11.32;;;;;;;;;;5100129;28;20088;-61
2023/07/31 03:58:35;;;;;;;11.48;10.98;;;;;;;;;;5076479;28;20019;-61
2023/07/31 04:01:01;;;;;;;11.35;10.85;;;;;;;;;;5093934;28;20490;-61
2023/07/31 04:03:26;;;;;;;11.90;11.30;;;;;;;;;;5090370;28;20063;-61
2023/07/31 04:05:54;;;;;;;11.20;10.70;;;;;;;;;;5085138;28;20119;-61
2023/07/31 04:08:19;;;;;;;11.10;10.60;;;;;;;;;;5095691;28;20016;-60
2023/07/31 04:10:45;;;;;;;11.53;11.03;;;;;;;;;;5088982;28;20119;-61
2023/07/31 04:13:10;;;;;;;11.13;10.63;;;;;;;;;;5089743;28;20276;-61
2023/07/31 04:15:35;;;;;;;11.13;10.63;;;;;;;;;;5095843;28;20024;-61
2023/07/31 04:18:00;;;;;;;11.63;11.13;;;;;;;;;;5090910;28;20059;-62
2023/07/31 04:20:26;;;;;;;11.02;10.52;;;;;;;;;;5091625;28;20074;-61
2023/07/31 04:22:51;;;;;;;11.38;10.88;;;;;;;;;;5089029;28;20051;-60
2023/07/31 04:25:16;;;;;;;11.90;11.30;;;;;;;;;;5091599;28;20043;-62
2023/07/31 04:27:42;;;;;;;11.02;10.52;;;;;;;;;;5093253;28;20026;-61
2023/07/31 04:30:07;;;;;;;11.50;11.00;;;;;;;;;;5102007;28;20107;-61
2023/07/31 04:32:32;;;;;;;11.35;10.85;;;;;;;;;;5094704;28;20015;-61
2023/07/31 04:34:58;;;;;;;11.05;10.55;;;;;;;;;;5097998;28;20751;-61
2023/07/31 04:37:23;;;;;;;11.70;11.20;;;;;;;;;;5088515;28;20475;-60
2023/07/31 04:39:48;;;;;;;11.05;10.55;;;;;;;;;;5097291;28;20471;-60
2023/07/31 04:42:14;;;;;;;11.48;10.98;;;;;;;;;;5092389;28;20028;-61
2023/07/31 04:44:39;;;;;;;11.43;10.93;;;;;;;;;;5096262;28;20016;-61
2023/07/31 04:47:05;;;;;;;11.30;10.80;;;;;;;;;;5094497;28;20031;-61
2023/07/31 04:49:31;;;;;;;12.00;11.40;;;;;;;;;;5099517;28;20168;-60
2023/07/31 04:51:57;;;;;;;11.25;10.75;;;;;;;;;;5098544;28;20374;-60
2023/07/31 04:54:22;;;;;;;11.35;10.85;;;;;;;;;;5092733;28;20020;-60
2023/07/31 04:56:47;;;;;;;11.63;11.13;;;;;;;;;;5097525;28;20008;-60
2023/07/31 04:59:13;;;;;;;11.50;11.00;;;;;;;;;;5086835;28;20020;-59
2023/07/31 05:01:38;;;;;;;11.85;11.25;;;;;;;;;;5092187;28;20384;-58
2023/07/31 05:04:03;;;;;;;10.95;10.45;;;;;;;;;;5094130;28;20445;-59
2023/07/31 05:06:28;;;;;;;11.77;11.25;;;;;;;;;;5093848;28;20349;-59
2023/07/31 05:08:54;;;;;;;11.80;11.25;;;;;;;;;;5099248;28;20110;-59
2023/07/31 05:11:19;;;;;;;11.52;11.02;;;;;;;;;;5099154;28;20383;-59
2023/07/31 05:13:44;;;;;;;12.05;11.45;;;;;;;;;;5095963;28;20073;-59
2023/07/31 05:16:10;;;;;;;11.38;10.88;;;;;;;;;;5093660;28;20050;-59
2023/07/31 05:18:35;;;;;;;11.30;10.80;;;;;;;;;;5075289;28;20586;-59
2023/07/31 05:21:00;;;;;;;11.80;11.23;;;;;;;;;;5087391;28;20043;-59
2023/07/31 05:23:25;;;;;;;11.40;10.90;;;;;;;;;;5099938;28;20028;-58
2023/07/31 05:25:51;;;;;;;11.27;10.77;;;;;;;;;;5093425;28;20024;-59
2023/07/31 05:28:16;;;;;;;11.57;11.07;;;;;;;;;;5093422;28;20391;-59
2023/07/31 05:30:41;;;;;;;11.65;11.13;;;;;;;;;;5094244;28;20026;-59
2023/07/31 05:33:07;;;;;;;11.50;11.00;;;;;;;;;;5097507;28;20052;-59
2023/07/31 05:35:32;;;;;;;11.07;10.57;;;;;;;;;;5089856;28;20097;-58
2023/07/31 05:37:57;;;;;;;11.13;10.63;;;;;;;;;;5078544;28;20552;-59
2023/07/31 05:40:23;;;;;;;11.20;10.70;;;;;;;;;;5095425;28;20024;-58
2023/07/31 05:42:48;;;;;;;11.35;10.85;;;;;;;;;;5095509;28;20069;-59
2023/07/31 05:45:13;;;;;;;13.02;12.38;;;;;;;;;;5092236;28;20012;-58
2023/07/31 05:47:39;;;;;;;12.15;11.55;;;;;;;;;;5094451;28;20534;-58
2023/07/31 05:50:05;;;;;;;11.48;10.98;;;;;;;;;;5091231;28;20368;-58
2023/07/31 05:52:30;;;;;;;11.45;10.95;;;;;;;;;;5092774;28;20020;-59
2023/07/31 05:54:55;;;;;;;11.82;11.25;;;;;;;;;;5091192;28;20023;-59
2023/07/31 05:57:21;;;;;;;12.45;11.85;;;;;;;;;;5088991;28;20062;-61
2023/07/31 05:59:46;;;;;;;11.75;11.20;;;;;;;;;;5088455;28;20465;-59
2023/07/31 06:02:12;;;;;;;11.38;10.88;;;;;;;;;;5092829;28;20036;-59
2023/07/31 06:04:37;;;;;;;12.20;11.60;;;;;;;;;;5086907;28;20031;-58
2023/07/31 06:07:03;;;;;;;11.82;11.23;;;;;;;;;;5093631;28;20331;-58
2023/07/31 06:09:28;;;;;;;11.45;10.95;;;;;;;;;;5089573;28;20184;-59
2023/07/31 06:11:54;;;;;;;11.52;11.02;;;;;;;;;;5088560;28;20247;-59
2023/07/31 06:14:19;;;;;;;11.68;11.13;;;;;;;;;;5087913;28;20068;-59
2023/07/31 06:16:44;;;;;;;11.77;11.20;;;;;;;;;;5092752;28;20024;-59
2023/07/31 06:19:10;;;;;;;11.40;10.90;;;;;;;;;;5089202;28;20028;-60
2023/07/31 06:21:37;;;;;;;11.82;11.25;;;;;;;;;;5084931;28;20077;-60
2023/07/31 06:24:02;;;;;;;11.45;10.95;;;;;;;;;;5097098;28;20024;-58
2023/07/31 06:26:28;;;;;;;11.82;11.23;;;;;;;;;;5091171;28;20028;-59
2023/07/31 06:28:53;;;;;;;11.45;10.95;;;;;;;;;;5089916;28;20077;-59
2023/07/31 06:31:22;;;;;;;11.23;10.73;;;;;;;;;;5087173;28;20135;-60
2023/07/31 06:33:47;;;;;;;12.38;11.77;;;;;;;;;;5094677;28;20099;-59
2023/07/31 06:36:13;;;;;;;11.52;11.02;;;;;;;;;;5086948;28;20500;-58
2023/07/31 06:38:38;;;;;;;11.38;10.88;;;;;;;;;;5088666;28;20047;-60
2023/07/31 06:41:04;;;;;;;11.10;10.60;;;;;;;;;;5090185;28;20016;-60
2023/07/31 06:43:29;;;;;;;12.93;12.32;;;;;;;;;;5076648;28;20038;-59
2023/07/31 06:45:54;;;;;;;13.05;12.40;;;;;;;;;;5081312;28;20045;-59
2023/07/31 06:48:19;;;;;;;12.13;11.52;;;;;;;;;;5088092;28;20024;-59
2023/07/31 06:50:45;;;;;;;11.93;11.32;;;;;;;;;;5092828;28;20019;-58
2023/07/31 06:53:10;;;;;;;12.60;12.00;;;;;;;;;;5089236;28;20081;-59
2023/07/31 06:55:35;;;;;;;12.15;11.55;;;;;;;;;;5090616;28;20024;-61
2023/07/31 06:58:01;;;;;;;12.55;11.95;;;;;;;;;;5088911;28;20483;-59
2023/07/31 07:00:26;;;;;;;12.20;11.60;;;;;;;;;;5082806;28;20044;-60
2023/07/31 07:02:52;;;;;;;12.20;11.60;;;;;;;;;;5092389;28;20034;-59
2023/07/31 07:05:17;;;;;;;12.30;11.70;;;;;;;;;;5089402;28;20016;-60
2023/07/31 07:07:43;;;;;;;12.55;11.95;;;;;;;;;;5086662;28;20028;-59
2023/07/31 07:10:08;;;;;;;12.27;11.68;;;;;;;;;;5092491;28;20016;-61
2023/07/31 07:12:34;;;;;;;12.27;11.68;;;;;;;;;;5087982;28;20103;-59
2023/07/31 07:14:59;;;;;;;12.63;12.02;;;;;;;;;;5087646;28;20020;-60
2023/07/31 07:17:25;;;;;;;11.95;11.35;;;;;;;;;;5086173;28;20028;-61
2023/07/31 07:19:51;;;;;;;13.85;13.15;;;;;;;;;;5090030;28;20119;-60
2023/07/31 07:22:16;;;;;;;12.73;12.13;;;;;;;;;;5088702;28;20073;-61
2023/07/31 07:24:41;;;;;;;12.65;12.05;;;;;;;;;;5095004;28;20035;-61
2023/07/31 07:27:07;;;;;;;12.20;11.60;;;;;;;;;;5088061;28;20483;-59
2023/07/31 07:29:34;;;;;;;12.52;11.93;;;;;;;;;;5088450;28;20019;-60
2023/07/31 07:31:59;;;;;;;12.48;11.88;;;;;;;;;;5085237;28;20031;-59
2023/07/31 07:34:27;;;;;;;12.38;11.77;;;;;;;;;;5089716;28;20031;-59
2023/07/31 07:36:53;;;;;;;12.13;11.52;;;;;;;;;;5084846;28;20458;-61
2023/07/31 07:39:18;;;;;;;12.63;12.02;;;;;;;;;;5097783;28;20152;-60
2023/07/31 07:41:44;;;;;;;13.63;12.93;;;;;;;;;;5087974;28;20077;-59
2023/07/31 07:44:09;;;;;;;12.90;12.30;;;;;;;;;;5097661;28;20224;-60
2023/07/31 07:46:34;;;;;;;12.13;11.52;;;;;;;;;;5086780;28;20150;-60
2023/07/31 07:48:59;;;;;;;12.75;12.15;;;;;;;;;;5089351;28;20387;-60
2023/07/31 07:51:25;;;;;;;12.20;11.60;;;;;;;;;;5089414;28;20039;-60
2023/07/31 07:53:50;;;;;;;12.85;12.25;;;;;;;;;;5085559;28;20024;-60
2023/07/31 07:56:15;;;;;;;12.35;11.75;;;;;;;;;;5087471;28;20031;-60
2023/07/31 07:58:41;;;;;;;13.13;12.48;;;;;;;;;;5069831;28;20097;-60
2023/07/31 08:01:06;;;;;;;12.30;11.70;;;;;;;;;;5093075;28;20439;-60
2023/07/31 08:03:31;;;;;;;12.00;11.40;;;;;;;;;;5091441;28;20024;-60
2023/07/31 08:06:00;;;;;;;12.48;11.88;;;;;;;;;;5087920;28;20702;-61
2023/07/31 08:08:25;;;;;;;12.02;11.43;;;;;;;;;;5084223;28;20032;-60
2023/07/31 08:10:51;;;;;;;11.77;11.23;;;;;;;;;;5084810;28;20781;-60
2023/07/31 08:13:16;;;;;;;12.68;12.07;;;;;;;;;;5089735;28;21051;-60
2023/07/31 08:15:43;;;;;;;13.35;12.68;;;;;;;;;;5085280;28;20023;-59
2023/07/31 08:18:08;;;;;;;12.57;11.98;;;;;;;;;;5088149;28;20041;-60
2023/07/31 08:20:34;;;;;;;12.75;12.15;;;;;;;;;;5086868;28;20387;-60
2023/07/31 08:22:59;;;;;;;13.02;12.43;;;;;;;;;;5084086;28;20024;-61
2023/07/31 08:25:24;;;;;;;12.45;11.85;;;;;;;;;;5082595;28;20436;-60
2023/07/31 08:27:52;;;;;;;13.10;12.48;;;;;;;;;;5085717;28;20012;-61
2023/07/31 08:30:18;;;;;;;12.73;12.13;;;;;;;;;;5083953;28;20487;-60
2023/07/31 08:32:43;;;;;;;12.13;11.52;;;;;;;;;;5087146;28;20023;-61
2023/07/31 08:35:09;;;;;;;12.50;11.90;;;;;;;;;;5085196;28;20123;-61
2023/07/31 08:37:34;;;;;;;11.80;11.27;;;;;;;;;;5090864;28;20028;-60
2023/07/31 08:39:59;;;;;;;12.07;11.48;;;;;;;;;;5085245;28;20066;-60
2023/07/31 08:42:25;;;;;;;12.25;11.65;;;;;;;;;;5083050;28;20032;-61
2023/07/31 08:44:50;;;;;;;13.18;12.57;;;;;;;;;;5083883;28;20491;-60
2023/07/31 08:47:16;;;;;;;12.20;11.60;;;;;;;;;;5084159;28;20398;-60
2023/07/31 08:49:41;;;;;;;12.23;11.63;;;;;;;;;;5083241;28;20024;-61
2023/07/31 08:52:07;;;;;;;12.00;11.40;;;;;;;;;;5090759;28;20070;-61
2023/07/31 08:54:33;;;;;;;12.60;12.00;;;;;;;;;;5087423;28;20047;-61
2023/07/31 08:56:59;;;;;;;12.77;12.18;;;;;;;;;;5091114;28;20019;-60
2023/07/31 08:59:26;;;;;;;12.88;12.27;;;;;;;;;;5088842;28;20521;-60
2023/07/31 09:01:54;;;;;;;12.40;11.80;;;;;;;;;;5089763;28;20027;-61
2023/07/31 09:04:19;;;;;;;12.50;11.90;;;;;;;;;;5087633;28;20032;-61
2023/07/31 09:06:45;;;;;;;12.82;12.23;;;;;;;;;;5082330;28;20016;-61
2023/07/31 09:09:11;;;;;;;11.98;11.38;;;;;;;;;;5086170;28;20035;-61
2023/07/31 09:11:37;;;;;;;12.60;12.00;;;;;;;;;;5087048;28;20121;-60
2023/07/31 09:14:08;;;;;;;13.55;12.85;;;;;;;;;;5085727;28;20122;-61
2023/07/31 09:16:33;;;;;;;12.40;11.80;;;;;;;;;;5087418;28;20028;-59
2023/07/31 09:19:01;;;;;;;12.95;12.35;;;;;;;;;;5089078;28;20046;-62
2023/07/31 09:21:27;;;;;;;12.05;11.45;;;;;;;;;;5087285;28;20016;-61
2023/07/31 09:23:54;;;;;;;13.55;12.85;;;;;;;;;;5095300;28;20054;-63
2023/07/31 09:26:33;;;;;;;12.32;11.73;;;;;;;;;;5091693;28;20560;-60
2023/07/31 09:28:58;;;;;;;13.05;12.45;;;;;;;;;;5086435;28;20032;-59
2023/07/31 09:31:43;;;;;;;12.43;11.82;;;;;;;;;;5085459;28;20390;-59
2023/07/31 09:34:08;;;;;;;12.52;11.93;;;;;;;;;;5091914;28;20028;-60
2023/07/31 09:36:41;;;;;;;12.32;11.73;;;;;;;;;;5089397;28;20368;-60
2023/07/31 09:39:08;;;;;;;12.63;12.02;;;;;;;;;;5093807;28;20118;-61
2023/07/31 09:41:36;;;;;;;12.05;11.48;;;;;;;;;;5094932;28;20030;-59
2023/07/31 09:44:01;;;;;;;12.68;12.07;;;;;;;;;;5096461;28;20398;-60
2023/07/31 09:46:27;;;;;;;12.52;11.93;;;;;;;;;;5088389;28;20011;-61
2023/07/31 09:48:52;;;;;;;12.70;12.10;;;;;;;;;;5089488;28;20024;-61
2023/07/31 09:51:25;;;;;;;12.15;11.55;;;;;;;;;;5091198;28;21314;-60
2023/07/31 09:53:51;;;;;;;12.70;12.10;;;;;;;;;;5086679;28;20491;-60
2023/07/31 09:56:18;;;;;;;12.88;12.27;;;;;;;;;;5091349;28;20024;-59
2023/07/31 09:58:43;;;;;;;12.32;11.73;;;;;;;;;;5091796;28;20093;-61
2023/07/31 10:01:09;;;;;;;12.68;12.07;;;;;;;;;;5092376;28;20044;-60
2023/07/31 10:03:34;;;;;;;12.60;12.00;;;;;;;;;;5086046;28;20031;-60
2023/07/31 10:06:00;;;;;;;12.35;11.75;;;;;;;;;;5086669;28;20024;-60
2023/07/31 10:08:29;;;;;;;12.93;12.32;;;;;;;;;;5091248;28;20020;-60
2023/07/31 10:10:57;;;;;;;12.55;11.95;;;;;;;;;;5088289;28;20483;-61
2023/07/31 10:13:23;;;;;;;12.55;11.95;;;;;;;;;;5081986;28;20075;-60
2023/07/31 10:15:49;;;;;;;12.52;11.93;;;;;;;;;;5079416;28;20474;-60
2023/07/31 10:18:15;;;;;;;12.38;11.77;;;;;;;;;;5084073;28;20403;-60
2023/07/31 10:20:41;;;;;;;13.25;12.65;;;;;;;;;;5083932;28;20028;-60
2023/07/31 10:23:06;;;;;;;12.90;12.30;;;;;;;;;;5082255;28;20035;-60
2023/07/31 10:25:31;;;;;;;12.52;11.93;;;;;;;;;;5085968;28;20057;-59
2023/07/31 10:27:57;;;;;;;13.02;12.43;;;;;;;;;;5084376;28;20035;-60
2023/07/31 10:30:24;;;;;;;14.10;13.40;;;;;;;;;;5085992;28;20017;-60
2023/07/31 10:32:51;;;;;;;12.75;12.15;;;;;;;;;;5082496;28;20020;-61
2023/07/31 10:35:17;;;;;;;12.45;11.85;;;;;;;;;;5082929;28;20035;-60
2023/07/31 10:37:43;;;;;;;12.70;12.10;;;;;;;;;;5080877;28;20032;-62
2023/07/31 10:40:19;;;;;;;12.40;11.80;;;;;;;;;;5086660;28;20076;-61
2023/07/31 10:42:47;;;;;;;12.40;11.80;;;;;;;;;;5081119;28;20474;-62
2023/07/31 10:45:12;;;;;;;13.38;12.75;;;;;;;;;;5083025;28;20024;-60
2023/07/31 10:47:45;;;;;;;12.70;12.10;;;;;;;;;;5085202;28;20016;-61
2023/07/31 10:50:20;;;;;;;12.63;12.02;;;;;;;;;;5081428;28;20043;-60
2023/07/31 10:52:49;;;;;;;12.85;12.25;;;;;;;;;;5082421;28;20438;-62
2023/07/31 10:55:15;;;;;;;12.85;12.25;;;;;;;;;;5091017;28;20028;-62
2023/07/31 10:57:44;;;;;;;12.77;12.18;;;;;;;;;;5084109;28;20027;-64
2023/07/31 11:00:19;;;;;;;12.60;12.00;;;;;;;;;;5086311;28;20039;-62
2023/07/31 11:02:55;;;;;;;13.02;12.43;;;;;;;;;;5087443;28;20032;-62
2023/07/31 11:05:22;;;;;;;12.30;11.70;;;;;;;;;;5085612;28;20024;-63
2023/07/31 11:07:50;;;;;;;12.73;12.13;;;;;;;;;;5089773;28;20503;-64
2023/07/31 11:10:16;;;;;;;12.00;11.48;;;;;;;;;;5094495;28;20024;-64
2023/07/31 11:12:41;;;;;;;12.00;11.45;;;;;;;;;;5089583;28;20020;-62
2023/07/31 11:15:07;;;;;;;12.30;11.70;;;;;;;;;;5087374;28;20016;-63
2023/07/31 11:17:32;;;;;;;12.65;12.05;;;;;;;;;;5088027;28;20267;-62
2023/07/31 11:19:57;;;;;;;13.00;12.40;;;;;;;;;;5082930;28;20100;-66
2023/07/31 11:22:23;;;;;;;12.30;11.70;;;;;;;;;;5084864;28;20031;-62
2023/07/31 11:24:48;;;;;;;12.40;11.80;;;;;;;;;;5089973;28;20664;-63
2023/07/31 11:27:14;;;;;;;12.70;12.10;;;;;;;;;;5088006;28;20015;-63
2023/07/31 11:29:39;;;;;;;12.20;11.60;;;;;;;;;;5091443;28;20027;-61
2023/07/31 11:32:04;;;;;;;12.70;12.10;;;;;;;;;;5082281;28;20032;-64
2023/07/31 11:34:30;;;;;;;11.82;11.32;;;;;;;;;;5091296;28;20039;-63
2023/07/31 11:36:55;;;;;;;12.32;11.73;;;;;;;;;;5089036;28;20034;-62
2023/07/31 11:39:21;;;;;;;11.55;11.05;;;;;;;;;;5087800;28;20483;-61
2023/07/31 11:41:47;;;;;;;12.18;11.57;;;;;;;;;;5073013;28;20102;-63
2023/07/31 11:44:12;;;;;;;12.93;12.32;;;;;;;;;;5093911;28;20505;-62
2023/07/31 11:46:38;;;;;;;12.98;12.38;;;;;;;;;;5082373;28;20479;-63
2023/07/31 11:49:04;;;;;;;12.75;12.15;;;;;;;;;;5088205;28;20027;-63
2023/07/31 11:51:29;;;;;;;12.48;11.88;;;;;;;;;;5095914;28;20483;-61
2023/07/31 11:53:56;;;;;;;12.43;11.82;;;;;;;;;;5090549;28;20088;-62
2023/07/31 11:56:23;;;;;;;12.23;11.63;;;;;;;;;;5091164;28;20024;-65
2023/07/31 11:58:53;;;;;;;12.93;12.32;;;;;;;;;;5087871;28;20031;-62
2023/07/31 12:01:19;;;;;;;12.85;12.25;;;;;;;;;;5080629;28;20048;-63
2023/07/31 12:03:45;;;;;;;13.05;12.45;;;;;;;;;;5084826;28;20039;-63
2023/07/31 12:06:10;;;;;;;11.55;11.05;;;;;;;;;;5085771;28;20027;-63
2023/07/31 12:08:36;;;;;;;12.73;12.13;;;;;;;;;;5087019;28;20047;-61
2023/07/31 12:11:06;;;;;;;12.43;11.82;;;;;;;;;;5085233;28;20021;-63
2023/07/31 12:13:32;;;;;;;11.73;11.23;;;;;;;;;;5093255;28;20028;-63
2023/07/31 12:15:59;;;;;;;12.95;12.35;;;;;;;;;;5089639;28;20107;-63
2023/07/31 12:18:25;;;;;;;13.35;12.75;;;;;;;;;;5087028;28;20136;-62
2023/07/31 12:20:55;;;;;;;12.73;12.13;;;;;;;;;;5093565;28;20059;-63
2023/07/31 12:23:30;;;;;;;12.32;11.73;;;;;;;;;;5092456;28;20020;-63
2023/07/31 12:26:09;;;;;;;12.90;12.30;;;;;;;;;;5078853;28;20031;-67
2023/07/31 12:28:40;;;;;;;12.35;11.75;;;;;;;;;;5084316;28;20023;-62
2023/07/31 12:31:05;;;;;;;13.07;12.48;;;;;;;;;;5078140;28;20054;-62
2023/07/31 12:33:35;;;;;;;12.45;11.85;;;;;;;;;;5080779;28;20036;-61
2023/07/31 12:36:01;;;;;;;12.82;12.23;;;;;;;;;;5078459;28;20127;-62
2023/07/31 12:38:26;;;;;;;12.70;12.10;;;;;;;;;;5085616;28;20060;-62
2023/07/31 12:40:52;;;;;;;12.88;12.27;;;;;;;;;;5080586;28;20051;-62
2023/07/31 12:43:17;;;;;;;12.63;12.02;;;;;;;;;;5080224;28;20034;-64
2023/07/31 12:45:42;;;;;;;13.05;12.45;;;;;;;;;;5081243;28;20062;-63
2023/07/31 12:48:08;;;;;;;12.77;12.18;;;;;;;;;;5080986;28;20028;-62
2023/07/31 12:50:36;;;;;;;13.02;12.43;;;;;;;;;;5081542;28;20046;-62
2023/07/31 12:53:01;;;;;;;12.30;11.73;;;;;;;;;;5077377;28;20482;-61
2023/07/31 12:55:27;;;;;;;12.45;11.85;;;;;;;;;;5086270;28;20036;-63
2023/07/31 12:57:52;;;;;;;12.25;11.65;;;;;;;;;;5083026;28;20024;-62
2023/07/31 13:00:17;;;;;;;13.23;12.63;;;;;;;;;;5085045;28;20048;-61
2023/07/31 13:02:43;;;;;;;12.75;12.15;;;;;;;;;;5079607;28;20024;-62
2023/07/31 13:05:08;;;;;;;12.85;12.25;;;;;;;;;;5083306;28;20142;-61
2023/07/31 13:07:34;;;;;;;11.95;11.45;;;;;;;;;;5086116;28;20035;-66
2023/07/31 13:09:59;;;;;;;12.55;11.95;;;;;;;;;;5085013;28;20058;-63
2023/07/31 13:12:24;;;;;;;12.77;12.18;;;;;;;;;;5083908;28;20016;-61
2023/07/31 13:14:50;;;;;;;12.52;11.93;;;;;;;;;;5080269;28;20020;-60
2023/07/31 13:17:15;;;;;;;12.45;11.85;;;;;;;;;;5081728;28;20545;-61
2023/07/31 13:19:42;;;;;;;12.47;11.87;;;;;;;;;;5082997;28;20053;-61
2023/07/31 13:22:07;;;;;;;13.27;12.68;;;;;;;;;;5072896;28;20256;-61
2023/07/31 13:24:33;;;;;;;12.60;12.00;;;;;;;;;;5087831;28;20057;-62
2023/07/31 13:26:58;;;;;;;12.73;12.13;;;;;;;;;;5081772;28;20036;-62
2023/07/31 13:29:24;;;;;;;13.05;12.45;;;;;;;;;;5085606;28;20349;-62
2023/07/31 13:31:49;;;;;;;12.55;11.95;;;;;;;;;;5083363;28;20020;-62
2023/07/31 13:34:14;;;;;;;12.68;12.07;;;;;;;;;;5084046;28;20055;-62
2023/07/31 13:36:40;;;;;;;11.95;11.45;;;;;;;;;;5084188;28;20342;-62
2023/07/31 13:39:06;;;;;;;12.48;11.88;;;;;;;;;;5087414;28;20108;-62
2023/07/31 13:41:31;;;;;;;12.55;11.95;;;;;;;;;;5084273;28;20189;-62
2023/07/31 13:43:56;;;;;;;12.88;12.27;;;;;;;;;;5091424;28;20024;-63
2023/07/31 13:46:22;;;;;;;12.23;11.63;;;;;;;;;;5088250;28;20402;-61
2023/07/31 13:48:47;;;;;;;12.05;11.50;;;;;;;;;;5089888;28;20322;-61
2023/07/31 13:51:12;;;;;;;12.02;11.50;;;;;;;;;;5081511;28;20055;-62
2023/07/31 13:53:37;;;;;;;12.77;12.17;;;;;;;;;;5081208;28;20498;-63
2023/07/31 13:56:03;;;;;;;11.63;11.13;;;;;;;;;;5084320;28;20293;-62
2023/07/31 13:58:28;;;;;;;12.63;12.02;;;;;;;;;;5087329;28;20474;-63
2023/07/31 14:00:53;;;;;;;12.45;11.85;;;;;;;;;;5089753;28;20127;-64
2023/07/31 14:03:19;;;;;;;12.38;11.77;;;;;;;;;;5086573;28;20450;-63
2023/07/31 14:05:44;;;;;;;13.60;12.95;;;;;;;;;;5080661;28;20133;-62
2023/07/31 14:08:09;;;;;;;12.27;11.68;;;;;;;;;;5086106;28;20205;-62
2023/07/31 14:10:35;;;;;;;12.27;11.68;;;;;;;;;;5087326;28;20399;-62